Decoded Metar for LFLB (CHAMBERY in FRANCE) (IATA:CMF) | Meteo·Mobile Aviation Weather
aviador You're here:

LFLB Decoded Metar

CHAMBERY in FRANCE
Report Time2019-06-18 12:30:00
UTC Time2019-06-18 12:41:13
Flight Rules vfr VFR
Wind010° at 05 kt
W.Decomp.*RWY 36: 4.9 kt HW 0.9 kt RCW
Visibility9999 m
Phenomena:N/A
Clouds:N/A
Expected CloudBase > 4,000 ft AGL from Temp-Dew spread
CeilingNone
Temp27°C (ISA +14)
Dew Point17°C (54% RH)
Heat Index27.7°C
QNH1014 hPa
Density Alt2,572 ft
Elevation784 ft
Report Wrong Elevation
Raw Report
METAR LFLB 181230Z AUTO 01005KT 340V050 CAVOK 27/17 Q1014 NOSIG=

Extra information for LFLB:More info

Metar Taf Metar & Taf Last 4 Metars F.Rules Stats Wind Profile Meteogram Temp Stats Airport Information Weather charts Add Link Nearby VenuesMetar ALERT Operation Metar Decoded Social comments